sensor_id;sensor_type;location;lat;lon;timestamp;P1;durP1;ratioP1;P2;durP2;ratioP2
59922;SDS011;45778;51.142;3.732;2023-10-19T00:01:22;2.10;;;0.40;;
59922;SDS011;45778;51.142;3.732;2023-10-19T00:03:51;1.77;;;0.38;;
59922;SDS011;45778;51.142;3.732;2023-10-19T00:06:18;3.67;;;0.50;;
59922;SDS011;45778;51.142;3.732;2023-10-19T00:08:44;2.72;;;0.52;;
59922;SDS011;45778;51.142;3.732;2023-10-19T00:11:12;2.40;;;0.40;;
59922;SDS011;45778;51.142;3.732;2023-10-19T00:13:47;2.38;;;0.40;;
59922;SDS011;45778;51.142;3.732;2023-10-19T00:16:16;1.48;;;0.40;;
59922;SDS011;45778;51.142;3.732;2023-10-19T00:18:43;4.82;;;0.60;;
59922;SDS011;45778;51.142;3.732;2023-10-19T00:21:09;3.63;;;0.68;;
59922;SDS011;45778;51.142;3.732;2023-10-19T00:23:52;3.25;;;0.50;;
59922;SDS011;45778;51.142;3.732;2023-10-19T00:26:22;3.05;;;0.40;;
59922;SDS011;45778;51.142;3.732;2023-10-19T00:28:55;5.40;;;0.50;;
59922;SDS011;45778;51.142;3.732;2023-10-19T00:31:21;2.25;;;0.30;;
59922;SDS011;45778;51.142;3.732;2023-10-19T00:33:48;1.42;;;1.17;;
59922;SDS011;45778;51.142;3.732;2023-10-19T00:36:17;2.22;;;0.40;;
59922;SDS011;45778;51.142;3.732;2023-10-19T00:38:45;3.30;;;0.60;;
59922;SDS011;45778;51.142;3.732;2023-10-19T00:41:14;1.50;;;0.32;;
59922;SDS011;45778;51.142;3.732;2023-10-19T00:43:54;3.50;;;0.30;;
59922;SDS011;45778;51.142;3.732;2023-10-19T00:46:41;1.45;;;0.40;;
59922;SDS011;45778;51.142;3.732;2023-10-19T00:49:07;2.50;;;0.45;;
59922;SDS011;45778;51.142;3.732;2023-10-19T00:51:51;3.30;;;0.68;;
59922;SDS011;45778;51.142;3.732;2023-10-19T00:54:30;0.85;;;0.30;;
59922;SDS011;45778;51.142;3.732;2023-10-19T00:57:01;4.18;;;0.60;;
59922;SDS011;45778;51.142;3.732;2023-10-19T00:59:40;2.47;;;0.52;;
59922;SDS011;45778;51.142;3.732;2023-10-19T01:02:19;2.10;;;0.70;;
59922;SDS011;45778;51.142;3.732;2023-10-19T01:04:49;4.25;;;0.80;;
59922;SDS011;45778;51.142;3.732;2023-10-19T01:07:29;3.45;;;0.50;;
59922;SDS011;45778;51.142;3.732;2023-10-19T01:09:57;3.28;;;0.60;;
59922;SDS011;45778;51.142;3.732;2023-10-19T01:12:45;2.95;;;0.50;;
59922;SDS011;45778;51.142;3.732;2023-10-19T01:15:15;4.45;;;0.55;;
59922;SDS011;45778;51.142;3.732;2023-10-19T01:17:46;6.15;;;0.40;;
59922;SDS011;45778;51.142;3.732;2023-10-19T01:20:19;3.50;;;0.50;;
59922;SDS011;45778;51.142;3.732;2023-10-19T01:23:02;8.40;;;3.13;;
59922;SDS011;45778;51.142;3.732;2023-10-19T01:28:37;1.85;;;0.47;;
59922;SDS011;45778;51.142;3.732;2023-10-19T01:31:10;3.35;;;0.43;;
59922;SDS011;45778;51.142;3.732;2023-10-19T01:33:57;2.58;;;0.55;;
59922;SDS011;45778;51.142;3.732;2023-10-19T01:36:26;3.80;;;0.70;;
59922;SDS011;45778;51.142;3.732;2023-10-19T01:38:55;2.08;;;0.60;;
59922;SDS011;45778;51.142;3.732;2023-10-19T01:41:26;2.17;;;0.40;;
59922;SDS011;45778;51.142;3.732;2023-10-19T01:43:53;1.55;;;0.30;;
59922;SDS011;45778;51.142;3.732;2023-10-19T01:46:19;1.10;;;0.22;;
59922;SDS011;45778;51.142;3.732;2023-10-19T01:48:47;3.90;;;0.50;;
59922;SDS011;45778;51.142;3.732;2023-10-19T01:51:15;2.40;;;0.60;;
59922;SDS011;45778;51.142;3.732;2023-10-19T01:53:42;2.63;;;0.40;;
59922;SDS011;45778;51.142;3.732;2023-10-19T01:56:11;3.03;;;0.45;;
59922;SDS011;45778;51.142;3.732;2023-10-19T01:58:41;1.27;;;0.40;;
59922;SDS011;45778;51.142;3.732;2023-10-19T02:01:07;4.55;;;0.55;;
59922;SDS011;45778;51.142;3.732;2023-10-19T02:03:35;3.75;;;0.60;;
59922;SDS011;45778;51.142;3.732;2023-10-19T02:06:01;2.92;;;0.60;;
59922;SDS011;45778;51.142;3.732;2023-10-19T02:08:43;2.10;;;0.63;;
59922;SDS011;45778;51.142;3.732;2023-10-19T02:11:15;2.92;;;0.50;;
59922;SDS011;45778;51.142;3.732;2023-10-19T02:13:46;3.13;;;0.40;;
59922;SDS011;45778;51.142;3.732;2023-10-19T02:16:14;1.30;;;0.40;;
59922;SDS011;45778;51.142;3.732;2023-10-19T02:18:44;3.05;;;0.60;;
59922;SDS011;45778;51.142;3.732;2023-10-19T02:21:10;3.72;;;0.60;;
59922;SDS011;45778;51.142;3.732;2023-10-19T02:23:40;4.47;;;0.60;;
59922;SDS011;45778;51.142;3.732;2023-10-19T02:26:07;2.28;;;0.60;;
59922;SDS011;45778;51.142;3.732;2023-10-19T02:28:33;3.80;;;0.40;;
59922;SDS011;45778;51.142;3.732;2023-10-19T02:31:03;5.22;;;0.98;;
59922;SDS011;45778;51.142;3.732;2023-10-19T02:33:41;2.50;;;0.40;;
59922;SDS011;45778;51.142;3.732;2023-10-19T02:36:11;3.15;;;0.43;;
59922;SDS011;45778;51.142;3.732;2023-10-19T02:38:40;4.20;;;0.57;;
59922;SDS011;45778;51.142;3.732;2023-10-19T02:41:17;5.30;;;0.55;;
59922;SDS011;45778;51.142;3.732;2023-10-19T02:43:44;2.55;;;0.50;;
59922;SDS011;45778;51.142;3.732;2023-10-19T02:46:12;0.75;;;0.32;;
59922;SDS011;45778;51.142;3.732;2023-10-19T02:48:39;5.03;;;0.75;;
59922;SDS011;45778;51.142;3.732;2023-10-19T02:51:09;4.05;;;0.55;;
59922;SDS011;45778;51.142;3.732;2023-10-19T02:53:36;2.60;;;0.65;;
59922;SDS011;45778;51.142;3.732;2023-10-19T02:56:13;0.90;;;0.40;;
59922;SDS011;45778;51.142;3.732;2023-10-19T02:58:49;2.38;;;0.68;;
59922;SDS011;45778;51.142;3.732;2023-10-19T03:01:16;2.00;;;0.55;;
59922;SDS011;45778;51.142;3.732;2023-10-19T03:03:46;3.35;;;0.70;;
59922;SDS011;45778;51.142;3.732;2023-10-19T03:06:14;3.97;;;0.50;;
59922;SDS011;45778;51.142;3.732;2023-10-19T03:08:44;5.53;;;0.80;;
59922;SDS011;45778;51.142;3.732;2023-10-19T03:11:11;3.80;;;0.90;;
59922;SDS011;45778;51.142;3.732;2023-10-19T03:13:38;7.03;;;0.75;;
59922;SDS011;45778;51.142;3.732;2023-10-19T03:16:06;7.13;;;0.80;;
59922;SDS011;45778;51.142;3.732;2023-10-19T03:18:34;4.10;;;0.65;;
59922;SDS011;45778;51.142;3.732;2023-10-19T03:21:03;4.43;;;1.13;;
59922;SDS011;45778;51.142;3.732;2023-10-19T03:23:28;6.95;;;0.90;;
59922;SDS011;45778;51.142;3.732;2023-10-19T03:25:55;7.13;;;1.30;;
59922;SDS011;45778;51.142;3.732;2023-10-19T03:28:26;4.47;;;0.65;;
59922;SDS011;45778;51.142;3.732;2023-10-19T03:30:54;3.85;;;0.70;;
59922;SDS011;45778;51.142;3.732;2023-10-19T03:33:20;4.18;;;0.90;;
59922;SDS011;45778;51.142;3.732;2023-10-19T03:35:51;3.10;;;0.70;;
59922;SDS011;45778;51.142;3.732;2023-10-19T03:38:19;2.00;;;0.68;;
59922;SDS011;45778;51.142;3.732;2023-10-19T03:40:47;4.38;;;0.77;;
59922;SDS011;45778;51.142;3.732;2023-10-19T03:43:20;4.60;;;0.93;;
59922;SDS011;45778;51.142;3.732;2023-10-19T03:45:51;3.97;;;0.73;;
59922;SDS011;45778;51.142;3.732;2023-10-19T03:48:21;3.42;;;0.60;;
59922;SDS011;45778;51.142;3.732;2023-10-19T03:50:52;7.00;;;0.93;;
59922;SDS011;45778;51.142;3.732;2023-10-19T03:53:20;3.97;;;0.70;;
59922;SDS011;45778;51.142;3.732;2023-10-19T03:55:47;3.15;;;0.80;;
59922;SDS011;45778;51.142;3.732;2023-10-19T03:58:15;5.22;;;0.88;;
59922;SDS011;45778;51.142;3.732;2023-10-19T04:00:41;3.50;;;0.85;;
59922;SDS011;45778;51.142;3.732;2023-10-19T04:03:07;6.18;;;1.00;;
59922;SDS011;45778;51.142;3.732;2023-10-19T04:05:33;4.97;;;0.60;;
59922;SDS011;45778;51.142;3.732;2023-10-19T04:08:04;7.70;;;2.00;;
59922;SDS011;45778;51.142;3.732;2023-10-19T04:10:38;4.93;;;1.02;;
59922;SDS011;45778;51.142;3.732;2023-10-19T04:13:04;6.93;;;0.82;;
59922;SDS011;45778;51.142;3.732;2023-10-19T04:15:34;3.20;;;0.60;;
59922;SDS011;45778;51.142;3.732;2023-10-19T04:18:01;4.70;;;1.05;;
59922;SDS011;45778;51.142;3.732;2023-10-19T04:20:27;5.85;;;1.20;;
59922;SDS011;45778;51.142;3.732;2023-10-19T04:23:20;6.47;;;0.90;;
59922;SDS011;45778;51.142;3.732;2023-10-19T04:25:47;5.03;;;1.30;;
59922;SDS011;45778;51.142;3.732;2023-10-19T04:28:13;5.20;;;0.63;;
59922;SDS011;45778;51.142;3.732;2023-10-19T04:30:39;5.88;;;0.75;;
59922;SDS011;45778;51.142;3.732;2023-10-19T04:33:05;3.22;;;0.90;;
59922;SDS011;45778;51.142;3.732;2023-10-19T04:35:36;3.40;;;0.70;;
59922;SDS011;45778;51.142;3.732;2023-10-19T04:38:05;4.60;;;0.90;;
59922;SDS011;45778;51.142;3.732;2023-10-19T04:40:31;5.45;;;0.85;;
59922;SDS011;45778;51.142;3.732;2023-10-19T04:42:57;3.60;;;0.80;;
59922;SDS011;45778;51.142;3.732;2023-10-19T04:45:23;3.55;;;0.85;;
59922;SDS011;45778;51.142;3.732;2023-10-19T04:47:52;5.38;;;0.98;;
59922;SDS011;45778;51.142;3.732;2023-10-19T04:50:18;7.70;;;1.40;;
59922;SDS011;45778;51.142;3.732;2023-10-19T04:52:44;7.65;;;1.20;;
59922;SDS011;45778;51.142;3.732;2023-10-19T04:55:09;9.43;;;1.10;;
59922;SDS011;45778;51.142;3.732;2023-10-19T04:57:35;11.75;;;1.70;;
59922;SDS011;45778;51.142;3.732;2023-10-19T05:00:01;2.55;;;1.02;;
59922;SDS011;45778;51.142;3.732;2023-10-19T05:02:29;8.63;;;1.45;;
59922;SDS011;45778;51.142;3.732;2023-10-19T05:04:55;6.43;;;1.30;;
59922;SDS011;45778;51.142;3.732;2023-10-19T05:07:21;5.47;;;2.10;;
59922;SDS011;45778;51.142;3.732;2023-10-19T05:09:46;9.35;;;1.05;;
59922;SDS011;45778;51.142;3.732;2023-10-19T05:12:13;8.95;;;1.40;;
59922;SDS011;45778;51.142;3.732;2023-10-19T05:14:41;8.68;;;1.38;;
59922;SDS011;45778;51.142;3.732;2023-10-19T05:17:08;11.15;;;1.23;;
59922;SDS011;45778;51.142;3.732;2023-10-19T05:19:37;5.40;;;1.23;;
59922;SDS011;45778;51.142;3.732;2023-10-19T05:22:07;6.70;;;1.65;;
59922;SDS011;45778;51.142;3.732;2023-10-19T05:24:34;8.63;;;1.60;;
59922;SDS011;45778;51.142;3.732;2023-10-19T05:27:00;5.53;;;1.25;;
59922;SDS011;45778;51.142;3.732;2023-10-19T05:29:26;8.02;;;1.20;;
59922;SDS011;45778;51.142;3.732;2023-10-19T05:31:52;6.00;;;1.35;;
59922;SDS011;45778;51.142;3.732;2023-10-19T05:34:22;8.90;;;1.80;;
59922;SDS011;45778;51.142;3.732;2023-10-19T05:36:48;6.88;;;1.35;;
59922;SDS011;45778;51.142;3.732;2023-10-19T05:39:17;12.32;;;2.75;;
59922;SDS011;45778;51.142;3.732;2023-10-19T05:41:44;7.75;;;1.85;;
59922;SDS011;45778;51.142;3.732;2023-10-19T05:44:09;10.70;;;3.45;;
59922;SDS011;45778;51.142;3.732;2023-10-19T05:46:35;11.63;;;2.22;;
59922;SDS011;45778;51.142;3.732;2023-10-19T05:49:01;10.80;;;2.10;;
59922;SDS011;45778;51.142;3.732;2023-10-19T05:51:29;8.02;;;1.83;;
59922;SDS011;45778;51.142;3.732;2023-10-19T05:53:55;6.43;;;1.80;;
59922;SDS011;45778;51.142;3.732;2023-10-19T05:56:26;9.65;;;2.00;;
59922;SDS011;45778;51.142;3.732;2023-10-19T05:58:53;6.03;;;1.80;;
59922;SDS011;45778;51.142;3.732;2023-10-19T06:01:19;9.60;;;2.25;;
59922;SDS011;45778;51.142;3.732;2023-10-19T06:03:45;11.98;;;1.95;;
59922;SDS011;45778;51.142;3.732;2023-10-19T06:06:10;11.20;;;1.70;;
59922;SDS011;45778;51.142;3.732;2023-10-19T06:08:36;6.57;;;2.15;;
59922;SDS011;45778;51.142;3.732;2023-10-19T06:11:02;6.82;;;1.83;;
59922;SDS011;45778;51.142;3.732;2023-10-19T06:13:28;9.50;;;1.70;;
59922;SDS011;45778;51.142;3.732;2023-10-19T06:15:54;11.15;;;2.05;;
59922;SDS011;45778;51.142;3.732;2023-10-19T06:18:20;8.05;;;1.30;;
59922;SDS011;45778;51.142;3.732;2023-10-19T06:20:46;6.38;;;1.52;;
59922;SDS011;45778;51.142;3.732;2023-10-19T06:23:13;9.93;;;1.65;;
59922;SDS011;45778;51.142;3.732;2023-10-19T06:25:38;11.35;;;1.90;;
59922;SDS011;45778;51.142;3.732;2023-10-19T06:28:04;10.50;;;2.10;;
59922;SDS011;45778;51.142;3.732;2023-10-19T06:30:31;11.65;;;2.28;;
59922;SDS011;45778;51.142;3.732;2023-10-19T06:32:58;10.63;;;2.28;;
59922;SDS011;45778;51.142;3.732;2023-10-19T06:35:31;13.13;;;2.75;;
59922;SDS011;45778;51.142;3.732;2023-10-19T06:37:58;14.95;;;2.53;;
59922;SDS011;45778;51.142;3.732;2023-10-19T06:40:24;14.25;;;2.30;;
59922;SDS011;45778;51.142;3.732;2023-10-19T06:42:51;16.85;;;2.28;;
59922;SDS011;45778;51.142;3.732;2023-10-19T06:45:20;9.30;;;2.25;;
59922;SDS011;45778;51.142;3.732;2023-10-19T06:47:47;10.45;;;1.52;;
59922;SDS011;45778;51.142;3.732;2023-10-19T06:50:15;14.63;;;2.70;;
59922;SDS011;45778;51.142;3.732;2023-10-19T06:55:49;11.90;;;2.45;;
59922;SDS011;45778;51.142;3.732;2023-10-19T06:58:14;9.68;;;2.47;;
59922;SDS011;45778;51.142;3.732;2023-10-19T07:00:44;9.85;;;2.67;;
59922;SDS011;45778;51.142;3.732;2023-10-19T07:03:10;7.47;;;1.55;;
59922;SDS011;45778;51.142;3.732;2023-10-19T07:05:36;9.98;;;1.95;;
59922;SDS011;45778;51.142;3.732;2023-10-19T07:08:02;13.10;;;2.83;;
59922;SDS011;45778;51.142;3.732;2023-10-19T07:10:31;13.35;;;2.33;;
59922;SDS011;45778;51.142;3.732;2023-10-19T07:12:59;11.18;;;2.60;;
59922;SDS011;45778;51.142;3.732;2023-10-19T07:15:25;12.32;;;1.67;;
59922;SDS011;45778;51.142;3.732;2023-10-19T07:17:51;9.18;;;2.03;;
59922;SDS011;45778;51.142;3.732;2023-10-19T07:20:21;5.80;;;1.65;;
59922;SDS011;45778;51.142;3.732;2023-10-19T07:22:57;8.43;;;1.38;;
59922;SDS011;45778;51.142;3.732;2023-10-19T07:25:46;8.88;;;1.48;;
59922;SDS011;45778;51.142;3.732;2023-10-19T07:28:14;13.32;;;1.92;;
59922;SDS011;45778;51.142;3.732;2023-10-19T07:30:41;9.82;;;1.67;;
59922;SDS011;45778;51.142;3.732;2023-10-19T07:33:08;13.20;;;2.15;;
59922;SDS011;45778;51.142;3.732;2023-10-19T07:35:35;9.07;;;2.03;;
59922;SDS011;45778;51.142;3.732;2023-10-19T07:38:04;14.20;;;2.10;;
59922;SDS011;45778;51.142;3.732;2023-10-19T07:40:32;6.18;;;1.25;;
59922;SDS011;45778;51.142;3.732;2023-10-19T07:42:59;10.73;;;1.77;;
59922;SDS011;45778;51.142;3.732;2023-10-19T07:45:24;10.50;;;2.40;;
59922;SDS011;45778;51.142;3.732;2023-10-19T07:47:50;13.25;;;1.98;;
59922;SDS011;45778;51.142;3.732;2023-10-19T07:50:16;10.90;;;1.80;;
59922;SDS011;45778;51.142;3.732;2023-10-19T07:52:51;12.35;;;1.85;;
59922;SDS011;45778;51.142;3.732;2023-10-19T07:55:20;12.80;;;2.53;;
59922;SDS011;45778;51.142;3.732;2023-10-19T07:57:49;8.63;;;1.98;;
59922;SDS011;45778;51.142;3.732;2023-10-19T08:00:16;15.13;;;2.85;;
59922;SDS011;45778;51.142;3.732;2023-10-19T08:02:43;12.75;;;2.00;;
59922;SDS011;45778;51.142;3.732;2023-10-19T08:05:15;5.03;;;1.70;;
59922;SDS011;45778;51.142;3.732;2023-10-19T08:07:43;10.07;;;1.83;;
59922;SDS011;45778;51.142;3.732;2023-10-19T08:10:10;11.65;;;1.88;;
59922;SDS011;45778;51.142;3.732;2023-10-19T08:12:37;11.57;;;2.00;;
59922;SDS011;45778;51.142;3.732;2023-10-19T08:15:06;9.40;;;1.67;;
59922;SDS011;45778;51.142;3.732;2023-10-19T08:17:33;9.48;;;1.50;;
59922;SDS011;45778;51.142;3.732;2023-10-19T08:20:03;8.65;;;1.63;;
59922;SDS011;45778;51.142;3.732;2023-10-19T08:22:33;11.23;;;1.38;;
59922;SDS011;45778;51.142;3.732;2023-10-19T08:24:59;12.52;;;1.90;;
59922;SDS011;45778;51.142;3.732;2023-10-19T08:27:25;8.23;;;1.48;;
59922;SDS011;45778;51.142;3.732;2023-10-19T08:29:50;9.13;;;1.92;;
59922;SDS011;45778;51.142;3.732;2023-10-19T08:32:16;8.52;;;2.03;;
59922;SDS011;45778;51.142;3.732;2023-10-19T08:34:42;12.98;;;2.92;;
59922;SDS011;45778;51.142;3.732;2023-10-19T08:37:07;6.40;;;1.58;;
59922;SDS011;45778;51.142;3.732;2023-10-19T08:39:33;9.43;;;1.58;;
59922;SDS011;45778;51.142;3.732;2023-10-19T08:42:01;11.73;;;1.98;;
59922;SDS011;45778;51.142;3.732;2023-10-19T08:44:29;4.78;;;1.02;;
59922;SDS011;45778;51.142;3.732;2023-10-19T08:46:55;8.55;;;1.48;;
59922;SDS011;45778;51.142;3.732;2023-10-19T08:49:22;6.72;;;1.67;;
59922;SDS011;45778;51.142;3.732;2023-10-19T08:51:48;10.93;;;2.28;;
59922;SDS011;45778;51.142;3.732;2023-10-19T08:54:16;15.23;;;2.03;;
59922;SDS011;45778;51.142;3.732;2023-10-19T08:56:42;10.25;;;1.73;;
59922;SDS011;45778;51.142;3.732;2023-10-19T08:59:08;8.43;;;1.65;;
59922;SDS011;45778;51.142;3.732;2023-10-19T09:01:37;9.20;;;1.60;;
59922;SDS011;45778;51.142;3.732;2023-10-19T09:04:03;7.53;;;1.58;;
59922;SDS011;45778;51.142;3.732;2023-10-19T09:06:36;11.55;;;1.83;;
59922;SDS011;45778;51.142;3.732;2023-10-19T09:11:34;12.25;;;1.90;;
59922;SDS011;45778;51.142;3.732;2023-10-19T09:14:00;8.68;;;1.70;;
59922;SDS011;45778;51.142;3.732;2023-10-19T09:16:29;9.95;;;2.05;;
59922;SDS011;45778;51.142;3.732;2023-10-19T09:18:55;11.70;;;1.98;;
59922;SDS011;45778;51.142;3.732;2023-10-19T09:21:22;11.85;;;2.15;;
59922;SDS011;45778;51.142;3.732;2023-10-19T09:23:51;6.60;;;1.80;;
59922;SDS011;45778;51.142;3.732;2023-10-19T09:26:17;11.90;;;1.88;;
59922;SDS011;45778;51.142;3.732;2023-10-19T09:28:46;9.35;;;1.67;;
59922;SDS011;45778;51.142;3.732;2023-10-19T09:31:15;16.52;;;2.72;;
59922;SDS011;45778;51.142;3.732;2023-10-19T09:33:42;7.75;;;2.00;;
59922;SDS011;45778;51.142;3.732;2023-10-19T09:36:12;12.65;;;1.83;;
59922;SDS011;45778;51.142;3.732;2023-10-19T09:38:48;10.70;;;1.77;;
59922;SDS011;45778;51.142;3.732;2023-10-19T09:41:18;10.18;;;2.13;;
59922;SDS011;45778;51.142;3.732;2023-10-19T09:43:46;7.68;;;1.65;;
59922;SDS011;45778;51.142;3.732;2023-10-19T09:46:18;6.85;;;1.92;;
59922;SDS011;45778;51.142;3.732;2023-10-19T09:48:47;9.50;;;1.27;;
59922;SDS011;45778;51.142;3.732;2023-10-19T09:51:14;8.93;;;1.70;;
59922;SDS011;45778;51.142;3.732;2023-10-19T09:53:41;11.38;;;1.65;;
59922;SDS011;45778;51.142;3.732;2023-10-19T09:56:50;7.82;;;1.70;;
59922;SDS011;45778;51.142;3.732;2023-10-19T09:59:29;12.00;;;2.05;;
59922;SDS011;45778;51.142;3.732;2023-10-19T10:02:09;6.97;;;1.87;;
59922;SDS011;45778;51.142;3.732;2023-10-19T10:04:40;7.22;;;1.70;;
59922;SDS011;45778;51.142;3.732;2023-10-19T10:07:08;7.43;;;1.80;;
59922;SDS011;45778;51.142;3.732;2023-10-19T10:09:38;10.70;;;1.77;;
59922;SDS011;45778;51.142;3.732;2023-10-19T10:12:18;12.85;;;1.92;;
59922;SDS011;45778;51.142;3.732;2023-10-19T10:17:27;8.25;;;2.22;;
59922;SDS011;45778;51.142;3.732;2023-10-19T10:22:42;10.55;;;4.22;;
59922;SDS011;45778;51.142;3.732;2023-10-19T10:25:08;15.27;;;5.50;;
59922;SDS011;45778;51.142;3.732;2023-10-19T10:27:51;16.05;;;4.25;;
59922;SDS011;45778;51.142;3.732;2023-10-19T10:30:17;14.27;;;3.05;;
59922;SDS011;45778;51.142;3.732;2023-10-19T10:32:47;21.27;;;4.10;;
59922;SDS011;45778;51.142;3.732;2023-10-19T10:38:19;16.23;;;6.43;;
59922;SDS011;45778;51.142;3.732;2023-10-19T10:40:48;11.05;;;5.82;;
59922;SDS011;45778;51.142;3.732;2023-10-19T10:43:15;14.93;;;5.68;;
59922;SDS011;45778;51.142;3.732;2023-10-19T10:45:42;20.38;;;7.53;;
59922;SDS011;45778;51.142;3.732;2023-10-19T10:48:15;10.60;;;5.35;;
59922;SDS011;45778;51.142;3.732;2023-10-19T10:50:42;13.60;;;6.95;;
59922;SDS011;45778;51.142;3.732;2023-10-19T10:53:13;12.15;;;6.20;;
59922;SDS011;45778;51.142;3.732;2023-10-19T10:55:42;11.25;;;6.40;;
59922;SDS011;45778;51.142;3.732;2023-10-19T10:58:08;15.98;;;6.63;;
59922;SDS011;45778;51.142;3.732;2023-10-19T11:00:41;15.98;;;7.70;;
59922;SDS011;45778;51.142;3.732;2023-10-19T11:03:12;18.33;;;6.30;;
59922;SDS011;45778;51.142;3.732;2023-10-19T11:05:39;19.30;;;7.00;;
59922;SDS011;45778;51.142;3.732;2023-10-19T11:08:12;17.75;;;7.60;;
59922;SDS011;45778;51.142;3.732;2023-10-19T11:10:39;13.45;;;5.45;;
59922;SDS011;45778;51.142;3.732;2023-10-19T11:13:08;10.23;;;5.07;;
59922;SDS011;45778;51.142;3.732;2023-10-19T11:15:39;13.50;;;9.18;;
59922;SDS011;45778;51.142;3.732;2023-10-19T11:18:27;13.68;;;8.93;;
59922;SDS011;45778;51.142;3.732;2023-10-19T11:20:57;15.07;;;7.03;;
59922;SDS011;45778;51.142;3.732;2023-10-19T11:26:20;12.63;;;2.28;;
59922;SDS011;45778;51.142;3.732;2023-10-19T11:28:46;7.38;;;2.38;;
59922;SDS011;45778;51.142;3.732;2023-10-19T11:31:22;8.63;;;2.33;;
59922;SDS011;45778;51.142;3.732;2023-10-19T11:33:48;9.43;;;2.20;;
59922;SDS011;45778;51.142;3.732;2023-10-19T11:36:15;9.45;;;2.90;;
59922;SDS011;45778;51.142;3.732;2023-10-19T11:38:42;9.88;;;2.10;;
59922;SDS011;45778;51.142;3.732;2023-10-19T11:41:13;10.13;;;3.22;;
59922;SDS011;45778;51.142;3.732;2023-10-19T11:43:40;16.27;;;3.95;;
59922;SDS011;45778;51.142;3.732;2023-10-19T11:46:07;13.23;;;5.13;;
59922;SDS011;45778;51.142;3.732;2023-10-19T11:48:34;16.80;;;6.05;;
59922;SDS011;45778;51.142;3.732;2023-10-19T11:51:02;19.05;;;8.05;;
59922;SDS011;45778;51.142;3.732;2023-10-19T11:53:32;12.48;;;6.60;;
59922;SDS011;45778;51.142;3.732;2023-10-19T11:56:02;11.07;;;3.45;;
59922;SDS011;45778;51.142;3.732;2023-10-19T11:58:30;8.40;;;3.65;;
59922;SDS011;45778;51.142;3.732;2023-10-19T12:01:03;16.42;;;3.55;;
59922;SDS011;45778;51.142;3.732;2023-10-19T12:03:37;8.25;;;3.10;;
59922;SDS011;45778;51.142;3.732;2023-10-19T12:06:06;11.93;;;4.20;;
59922;SDS011;45778;51.142;3.732;2023-10-19T12:08:33;7.63;;;2.65;;
59922;SDS011;45778;51.142;3.732;2023-10-19T12:10:59;9.70;;;4.30;;
59922;SDS011;45778;51.142;3.732;2023-10-19T12:13:29;9.75;;;3.08;;
59922;SDS011;45778;51.142;3.732;2023-10-19T12:15:56;10.85;;;3.15;;
59922;SDS011;45778;51.142;3.732;2023-10-19T12:18:25;11.88;;;3.53;;
59922;SDS011;45778;51.142;3.732;2023-10-19T12:20:53;8.85;;;2.30;;
59922;SDS011;45778;51.142;3.732;2023-10-19T12:23:24;9.30;;;2.40;;
59922;SDS011;45778;51.142;3.732;2023-10-19T12:25:50;10.40;;;2.25;;
59922;SDS011;45778;51.142;3.732;2023-10-19T12:28:16;10.18;;;2.47;;
59922;SDS011;45778;51.142;3.732;2023-10-19T12:30:42;6.40;;;2.30;;
59922;SDS011;45778;51.142;3.732;2023-10-19T12:33:09;8.52;;;2.30;;
59922;SDS011;45778;51.142;3.732;2023-10-19T12:35:41;8.65;;;2.28;;
59922;SDS011;45778;51.142;3.732;2023-10-19T12:38:22;5.80;;;2.08;;
59922;SDS011;45778;51.142;3.732;2023-10-19T12:40:49;7.82;;;1.88;;
59922;SDS011;45778;51.142;3.732;2023-10-19T12:43:19;5.57;;;1.88;;
59922;SDS011;45778;51.142;3.732;2023-10-19T12:45:47;4.97;;;2.00;;
59922;SDS011;45778;51.142;3.732;2023-10-19T12:48:18;7.40;;;2.60;;
59922;SDS011;45778;51.142;3.732;2023-10-19T12:50:46;7.10;;;2.25;;
59922;SDS011;45778;51.142;3.732;2023-10-19T12:53:12;8.45;;;2.03;;
59922;SDS011;45778;51.142;3.732;2023-10-19T12:55:39;5.78;;;1.80;;
59922;SDS011;45778;51.142;3.732;2023-10-19T12:58:05;8.73;;;1.60;;
59922;SDS011;45778;51.142;3.732;2023-10-19T13:00:37;9.82;;;1.92;;
59922;SDS011;45778;51.142;3.732;2023-10-19T13:03:14;4.78;;;1.88;;
59922;SDS011;45778;51.142;3.732;2023-10-19T13:05:43;6.32;;;1.65;;
59922;SDS011;45778;51.142;3.732;2023-10-19T13:08:10;7.25;;;1.27;;
59922;SDS011;45778;51.142;3.732;2023-10-19T13:10:39;9.77;;;1.95;;
59922;SDS011;45778;51.142;3.732;2023-10-19T13:13:07;3.53;;;1.33;;
59922;SDS011;45778;51.142;3.732;2023-10-19T13:15:37;6.60;;;1.73;;
59922;SDS011;45778;51.142;3.732;2023-10-19T13:18:04;2.72;;;1.30;;
59922;SDS011;45778;51.142;3.732;2023-10-19T13:20:32;4.20;;;1.50;;
59922;SDS011;45778;51.142;3.732;2023-10-19T13:23:07;4.03;;;0.90;;
59922;SDS011;45778;51.142;3.732;2023-10-19T13:25:46;3.30;;;0.90;;
59922;SDS011;45778;51.142;3.732;2023-10-19T13:28:18;4.13;;;0.82;;
59922;SDS011;45778;51.142;3.732;2023-10-19T13:30:49;2.22;;;0.90;;
59922;SDS011;45778;51.142;3.732;2023-10-19T13:33:16;4.30;;;1.08;;
59922;SDS011;45778;51.142;3.732;2023-10-19T13:35:43;4.05;;;1.10;;
59922;SDS011;45778;51.142;3.732;2023-10-19T13:38:11;2.92;;;1.05;;
59922;SDS011;45778;51.142;3.732;2023-10-19T13:40:38;2.75;;;0.90;;
59922;SDS011;45778;51.142;3.732;2023-10-19T13:43:05;4.85;;;1.38;;
59922;SDS011;45778;51.142;3.732;2023-10-19T13:45:36;3.67;;;1.15;;
59922;SDS011;45778;51.142;3.732;2023-10-19T13:48:03;2.60;;;1.00;;
59922;SDS011;45778;51.142;3.732;2023-10-19T13:50:30;6.88;;;0.93;;
59922;SDS011;45778;51.142;3.732;2023-10-19T13:52:57;4.80;;;0.90;;
59922;SDS011;45778;51.142;3.732;2023-10-19T13:55:25;5.00;;;1.15;;
59922;SDS011;45778;51.142;3.732;2023-10-19T13:57:54;7.60;;;1.20;;
59922;SDS011;45778;51.142;3.732;2023-10-19T14:00:21;3.58;;;1.05;;
59922;SDS011;45778;51.142;3.732;2023-10-19T14:02:55;2.88;;;0.85;;
59922;SDS011;45778;51.142;3.732;2023-10-19T14:05:22;6.18;;;0.82;;
59922;SDS011;45778;51.142;3.732;2023-10-19T14:07:49;4.38;;;1.08;;
59922;SDS011;45778;51.142;3.732;2023-10-19T14:10:17;6.18;;;1.02;;
59922;SDS011;45778;51.142;3.732;2023-10-19T14:12:45;3.15;;;1.00;;
59922;SDS011;45778;51.142;3.732;2023-10-19T14:15:15;5.10;;;0.77;;
59922;SDS011;45778;51.142;3.732;2023-10-19T14:17:45;2.92;;;0.70;;
59922;SDS011;45778;51.142;3.732;2023-10-19T14:20:13;2.28;;;0.70;;
59922;SDS011;45778;51.142;3.732;2023-10-19T14:22:40;3.50;;;1.02;;
59922;SDS011;45778;51.142;3.732;2023-10-19T14:25:10;1.77;;;0.73;;
59922;SDS011;45778;51.142;3.732;2023-10-19T14:27:47;3.08;;;0.82;;
59922;SDS011;45778;51.142;3.732;2023-10-19T14:30:21;1.20;;;0.60;;
59922;SDS011;45778;51.142;3.732;2023-10-19T14:32:48;6.78;;;1.00;;
59922;SDS011;45778;51.142;3.732;2023-10-19T14:35:15;4.95;;;0.80;;
59922;SDS011;45778;51.142;3.732;2023-10-19T14:37:45;3.45;;;1.00;;
59922;SDS011;45778;51.142;3.732;2023-10-19T14:40:13;2.65;;;1.08;;
59922;SDS011;45778;51.142;3.732;2023-10-19T14:42:46;5.22;;;0.80;;
59922;SDS011;45778;51.142;3.732;2023-10-19T14:45:13;4.80;;;0.70;;
59922;SDS011;45778;51.142;3.732;2023-10-19T14:47:42;2.88;;;0.82;;
59922;SDS011;45778;51.142;3.732;2023-10-19T14:50:16;5.60;;;0.90;;
59922;SDS011;45778;51.142;3.732;2023-10-19T14:52:44;3.40;;;1.00;;
59922;SDS011;45778;51.142;3.732;2023-10-19T14:55:12;4.43;;;0.77;;
59922;SDS011;45778;51.142;3.732;2023-10-19T14:57:40;5.93;;;0.98;;
59922;SDS011;45778;51.142;3.732;2023-10-19T15:00:07;2.30;;;0.82;;
59922;SDS011;45778;51.142;3.732;2023-10-19T15:02:46;4.05;;;0.80;;
59922;SDS011;45778;51.142;3.732;2023-10-19T15:05:12;2.42;;;1.35;;
59922;SDS011;45778;51.142;3.732;2023-10-19T15:07:45;2.83;;;1.00;;
59922;SDS011;45778;51.142;3.732;2023-10-19T15:10:16;2.10;;;0.80;;
59922;SDS011;45778;51.142;3.732;2023-10-19T15:12:50;4.88;;;1.20;;
59922;SDS011;45778;51.142;3.732;2023-10-19T15:15:17;3.67;;;1.25;;